Terminal Aerodrome Forecast
Issued by NWS Boston, MA

Home | Current Version | Previous Version | Text Only | Print | Product List | Glossary On
Versions: 1 2 3 4 5 6 7 8 9 10 11 12 13 14 15 16 17 18 19 20 21 22 23 24 25 26 27 28 29 30 31 32 33 34 35 36 37 38 39 40 41 42 43 44 45 46 47
000
FTUS41 KBOX 261526 AAA
TAFBOS
TAF AMD
KBOS 261526Z 2615/2718 02006KT P6SM -RA OVC040
     FM261700 02007KT 3SM -RASN OVC020
     FM261800 03007KT 3SM RASN OVC008
     FM262100 03011G32KT 1SM RASNPL OVC008
     FM270300 01019G40KT 1SM -RAPL OVC008
     FM270500 35015G39KT P6SM OVC010=

USA.gov is the U.S. government's official web portal to all federal, state and local government web resources and services.